Time;durP1;ratioP1;P1;durP2;ratioP2;P2;SDS_P1;SDS_P2;PMS_P1;PMS_P2;Temp;Humidity;BMP_temperature;BMP_pressure;BME280_temperature;BME280_humidity;BME280_pressure;Samples;Min_cycle;Max_cycle;Signal;HPM_P1;HPM_P2
2021/08/20 00:01:57;;;;;;;;;;;17.10;99.90;;;;;;5103625;28;19928;-65
2021/08/20 00:04:48;;;;;;;;;;;17.00;99.90;;;;;;5113659;28;19946;-66
2021/08/20 00:08:02;;;;;;;;;;;17.00;99.90;;;;;;5114364;28;19971;-66
2021/08/20 00:10:50;;;;;;;;;;;17.00;99.90;;;;;;5098944;28;19930;-65
2021/08/20 00:13:40;;;;;;;;;;;17.10;99.90;;;;;;5113028;28;19928;-68
2021/08/20 00:16:29;;;;;;;;;;;17.10;99.90;;;;;;5101630;28;19934;-66
2021/08/20 00:19:17;;;;;;;;;;;17.10;99.90;;;;;;5112766;28;20016;-66
2021/08/20 00:22:06;;;;;;;;;;;17.00;99.90;;;;;;5113144;28;19953;-68
2021/08/20 00:24:54;;;;;;;;;;;17.00;99.90;;;;;;5112867;28;20028;-66
2021/08/20 00:30:59;;;;;;;;;;;17.10;99.90;;;;;;5106939;28;19940;-68
2021/08/20 00:33:48;;;;;;;;;;;17.10;99.90;;;;;;5113770;28;19930;-65
2021/08/20 00:36:37;;;;;;;;;;;17.10;99.90;;;;;;5097925;28;19931;-65
2021/08/20 00:39:25;;;;;;;;;;;17.00;99.90;;;;;;5099333;28;20333;-65
2021/08/20 00:42:16;;;;;;;;;;;17.00;99.90;;;;;;5097926;28;20052;-65
2021/08/20 00:45:05;;;;;;;;;;;17.00;99.90;;;;;;5091477;28;19923;-65
2021/08/20 00:47:55;;;;;;;;;;;17.00;99.90;;;;;;5123995;28;19923;-65
2021/08/20 00:50:44;;;;;;;;;;;16.90;99.90;;;;;;5118876;28;19995;-66
2021/08/20 00:53:33;;;;;;;;;;;16.90;99.90;;;;;;5129326;28;19935;-66
2021/08/20 00:56:22;;;;;;;;;;;16.90;99.90;;;;;;5129361;28;19924;-65
2021/08/20 00:59:12;;;;;;;;;;;16.90;99.90;;;;;;5120106;28;19962;-66
2021/08/20 01:02:00;;;;;;;;;;;16.90;99.90;;;;;;5124018;28;19928;-66
2021/08/20 01:08:05;;;;;;;;;;;16.90;99.90;;;;;;5131731;28;19908;-67
2021/08/20 01:10:55;;;;;;;;;;;17.00;99.90;;;;;;5119631;28;19923;-67
2021/08/20 01:13:44;;;;;;;;;;;16.90;99.90;;;;;;5119236;28;19937;-65
2021/08/20 01:16:38;;;;;;;;;;;16.90;99.90;;;;;;5126437;28;19949;-66
2021/08/20 01:19:26;;;;;;;;;;;16.90;99.90;;;;;;5116732;28;19924;-65
2021/08/20 01:22:18;;;;;;;;;;;16.90;99.90;;;;;;5100584;28;19923;-66
2021/08/20 01:25:11;;;;;;;;;;;16.90;99.90;;;;;;5113559;28;19925;-66
2021/08/20 01:28:11;;;;;;;;;;;16.80;99.90;;;;;;5112318;28;19922;-66
2021/08/20 01:31:01;;;;;;;;;;;16.70;99.90;;;;;;5112442;28;19916;-65
2021/08/20 01:33:50;;;;;;;;;;;16.80;99.90;;;;;;5121072;28;19928;-65
2021/08/20 01:36:39;;;;;;;;;;;16.70;99.90;;;;;;5120185;28;19918;-66
2021/08/20 01:39:27;;;;;;;;;;;16.70;99.90;;;;;;5135056;28;19963;-66
2021/08/20 01:42:19;;;;;;;;;;;16.70;99.90;;;;;;5120860;28;19923;-68
2021/08/20 01:45:08;;;;;;;;;;;16.70;99.90;;;;;;5114628;28;19971;-65
2021/08/20 01:47:57;;;;;;;;;;;16.70;99.90;;;;;;5133112;28;20363;-66
2021/08/20 01:50:46;;;;;;;;;;;16.70;99.90;;;;;;5119832;28;19924;-66
2021/08/20 01:53:35;;;;;;;;;;;16.70;99.90;;;;;;5135300;28;19924;-66
2021/08/20 01:56:24;;;;;;;;;;;16.70;99.90;;;;;;5134512;28;19924;-66
2021/08/20 01:59:14;;;;;;;;;;;16.70;99.90;;;;;;5121260;28;19938;-65
2021/08/20 02:02:02;;;;;;;;;;;16.70;99.90;;;;;;5129042;28;19914;-66
2021/08/20 02:05:16;;;;;;;;;;;16.70;99.90;;;;;;5128929;28;19924;-65
2021/08/20 02:08:06;;;;;;;;;;;16.80;99.90;;;;;;5104622;28;19950;-65
2021/08/20 02:10:56;;;;;;;;;;;16.80;99.90;;;;;;5097143;28;19966;-65
2021/08/20 02:13:44;;;;;;;;;;;16.70;99.90;;;;;;5117883;28;19924;-65
2021/08/20 02:16:34;;;;;;;;;;;16.70;99.90;;;;;;5105151;28;20291;-68
2021/08/20 02:19:26;;;;;;;;;;;16.70;99.90;;;;;;5100465;28;19924;-68
2021/08/20 02:22:16;;;;;;;;;;;16.70;99.90;;;;;;5100628;28;19924;-65
2021/08/20 02:25:09;;;;;;;;;;;16.70;99.90;;;;;;5078410;28;20025;-65
2021/08/20 02:27:59;;;;;;;;;;;16.60;99.90;;;;;;5099935;28;19930;-67
2021/08/20 02:30:49;;;;;;;;;;;16.60;99.90;;;;;;5115107;27;19966;-66
2021/08/20 02:33:44;;;;;;;;;;;16.60;99.90;;;;;;5120350;27;19985;-68
2021/08/20 02:36:33;;;;;;;;;;;16.60;99.90;;;;;;5120113;27;19924;-66
2021/08/20 02:39:22;;;;;;;;;;;16.60;99.90;;;;;;5119942;27;19923;-65
2021/08/20 02:42:11;;;;;;;;;;;16.60;99.90;;;;;;5134129;27;19927;-65
2021/08/20 02:44:59;;;;;;;;;;;16.60;99.90;;;;;;5119911;27;20014;-66
2021/08/20 02:47:48;;;;;;;;;;;16.60;99.90;;;;;;5126928;27;20286;-65
2021/08/20 02:50:37;;;;;;;;;;;16.50;99.90;;;;;;5100319;28;20312;-65
2021/08/20 02:53:26;;;;;;;;;;;16.50;99.90;;;;;;5114866;28;19930;-66
2021/08/20 02:56:19;;;;;;;;;;;16.50;99.90;;;;;;5100209;28;20014;-68
2021/08/20 02:59:16;;;;;;;;;;;16.50;99.90;;;;;;5114883;28;19935;-65
2021/08/20 03:02:05;;;;;;;;;;;16.40;99.90;;;;;;5128666;27;19923;-65
2021/08/20 03:08:12;;;;;;;;;;;16.50;99.90;;;;;;5135129;27;20397;-66
2021/08/20 03:11:03;;;;;;;;;;;16.50;99.90;;;;;;5119868;27;19927;-66
2021/08/20 03:13:52;;;;;;;;;;;16.50;99.90;;;;;;5119484;27;20371;-65
2021/08/20 03:16:42;;;;;;;;;;;16.50;99.90;;;;;;5116052;27;19931;-68
2021/08/20 03:19:31;;;;;;;;;;;16.40;99.90;;;;;;5120014;27;20080;-64
2021/08/20 03:22:19;;;;;;;;;;;16.40;99.90;;;;;;5119532;27;19924;-65
2021/08/20 03:25:10;;;;;;;;;;;16.40;99.90;;;;;;5119774;27;19923;-67
2021/08/20 03:28:01;;;;;;;;;;;16.40;99.90;;;;;;5135325;27;19924;-65
2021/08/20 03:30:58;;;;;;;;;;;16.40;99.90;;;;;;5112081;27;19935;-66
2021/08/20 03:33:47;;;;;;;;;;;16.40;99.90;;;;;;5119699;27;20006;-65
2021/08/20 03:36:41;;;;;;;;;;;16.40;99.90;;;;;;5119246;27;19934;-68
2021/08/20 03:39:46;;;;;;;;;;;16.40;99.90;;;;;;5119850;27;19928;-65
2021/08/20 03:42:40;;;;;;;;;;;16.40;99.90;;;;;;5119068;27;19924;-66
2021/08/20 03:45:45;;;;;;;;;;;16.40;99.90;;;;;;5113766;27;20283;-65
2021/08/20 03:48:50;;;;;;;;;;;16.40;99.90;;;;;;5119354;27;19931;-63
2021/08/20 03:51:38;;;;;;;;;;;16.40;99.90;;;;;;5118846;27;20060;-66
2021/08/20 03:54:38;;;;;;;;;;;16.40;99.90;;;;;;5119157;27;20264;-64
2021/08/20 03:57:28;;;;;;;;;;;16.30;99.90;;;;;;5119517;27;19924;-64
2021/08/20 04:00:20;;;;;;;;;;;16.40;99.90;;;;;;5118452;27;19951;-65
2021/08/20 04:03:15;;;;;;;;;;;16.30;99.90;;;;;;5119116;27;19923;-64
2021/08/20 04:06:08;;;;;;;;;;;16.40;99.90;;;;;;5119984;27;20371;-63
2021/08/20 04:08:58;;;;;;;;;;;16.40;99.90;;;;;;5120423;27;19930;-64
2021/08/20 04:12:05;;;;;;;;;;;16.40;99.90;;;;;;5133949;27;19924;-64
2021/08/20 04:15:02;;;;;;;;;;;16.40;99.90;;;;;;5137377;27;19924;-63
2021/08/20 04:17:52;;;;;;;;;;;16.40;99.90;;;;;;5118818;27;19971;-63
2021/08/20 04:20:42;;;;;;;;;;;16.40;99.90;;;;;;5118487;27;19927;-64
2021/08/20 04:23:32;;;;;;;;;;;16.30;99.90;;;;;;5117031;27;20185;-64
2021/08/20 04:26:23;;;;;;;;;;;16.40;99.90;;;;;;5117077;27;19928;-63
2021/08/20 04:29:18;;;;;;;;;;;16.40;99.90;;;;;;5133505;27;19924;-66
2021/08/20 04:32:26;;;;;;;;;;;16.30;99.90;;;;;;5126289;27;19924;-64
2021/08/20 04:35:38;;;;;;;;;;;16.40;99.90;;;;;;5116880;27;19929;-65
2021/08/20 04:38:39;;;;;;;;;;;16.40;99.90;;;;;;5132468;27;19923;-64
2021/08/20 04:41:58;;;;;;;;;;;16.40;99.90;;;;;;5132872;27;19924;-64
2021/08/20 04:45:03;;;;;;;;;;;16.40;99.90;;;;;;5113371;27;19949;-63
2021/08/20 04:48:13;;;;;;;;;;;16.40;99.90;;;;;;5131251;27;19924;-63
2021/08/20 04:51:26;;;;;;;;;;;16.50;99.90;;;;;;5104720;27;19988;-63
2021/08/20 04:54:37;;;;;;;;;;;16.40;99.90;;;;;;5132129;27;19923;-64
2021/08/20 04:57:31;;;;;;;;;;;16.40;99.90;;;;;;5131867;27;20418;-63
2021/08/20 05:00:20;;;;;;;;;;;16.30;99.90;;;;;;5109546;27;19931;-63
2021/08/20 05:03:09;;;;;;;;;;;16.30;99.90;;;;;;5111612;28;20006;-64
2021/08/20 05:05:59;;;;;;;;;;;16.30;99.90;;;;;;5097744;28;19931;-65
2021/08/20 05:08:50;;;;;;;;;;;16.30;99.90;;;;;;5111351;28;19967;-64
2021/08/20 05:11:40;;;;;;;;;;;16.30;99.90;;;;;;5112440;28;20005;-64
2021/08/20 05:14:29;;;;;;;;;;;16.40;99.90;;;;;;5112125;28;19924;-63
2021/08/20 05:17:17;;;;;;;;;;;16.50;99.90;;;;;;5105417;28;19923;-64
2021/08/20 05:20:06;;;;;;;;;;;16.50;99.90;;;;;;5110894;28;19973;-64
2021/08/20 05:22:58;;;;;;;;;;;16.50;99.90;;;;;;5103320;28;19927;-64
2021/08/20 05:25:47;;;;;;;;;;;16.60;99.90;;;;;;5096762;28;19989;-64
2021/08/20 05:28:36;;;;;;;;;;;16.60;99.90;;;;;;5112667;28;19924;-65
2021/08/20 05:31:25;;;;;;;;;;;16.70;99.90;;;;;;5106066;28;20326;-64
2021/08/20 05:34:15;;;;;;;;;;;16.70;99.90;;;;;;5112466;28;19969;-65
2021/08/20 05:37:04;;;;;;;;;;;16.80;99.90;;;;;;5112147;28;20366;-65
2021/08/20 05:39:52;;;;;;;;;;;16.70;99.90;;;;;;5112408;28;19981;-64
2021/08/20 05:42:42;;;;;;;;;;;16.70;99.90;;;;;;5112158;28;19924;-64
2021/08/20 05:45:30;;;;;;;;;;;16.80;99.90;;;;;;5104437;28;19947;-64
2021/08/20 05:48:18;;;;;;;;;;;16.80;99.90;;;;;;5111986;28;19924;-64
2021/08/20 05:51:07;;;;;;;;;;;16.80;99.90;;;;;;5111380;28;19924;-64
2021/08/20 05:53:55;;;;;;;;;;;16.80;99.90;;;;;;5112841;28;19928;-64
2021/08/20 05:56:44;;;;;;;;;;;16.90;99.90;;;;;;5116689;28;20465;-65
2021/08/20 05:59:33;;;;;;;;;;;17.10;99.90;;;;;;5115147;28;20298;-64
2021/08/20 06:02:22;;;;;;;;;;;17.20;99.90;;;;;;5089425;28;19924;-64
2021/08/20 06:05:12;;;;;;;;;;;17.10;99.90;;;;;;5082384;28;19928;-64
2021/08/20 06:08:01;;;;;;;;;;;17.00;99.90;;;;;;5088016;28;19924;-65
2021/08/20 06:10:51;;;;;;;;;;;16.90;99.90;;;;;;5095348;28;19931;-66
2021/08/20 06:13:43;;;;;;;;;;;17.00;99.90;;;;;;5099653;28;20359;-65
2021/08/20 06:16:33;;;;;;;;;;;17.00;99.90;;;;;;5110768;28;19924;-65
2021/08/20 06:19:22;;;;;;;;;;;17.00;99.90;;;;;;5115071;28;20291;-65
2021/08/20 06:22:10;;;;;;;;;;;17.00;99.90;;;;;;5115871;28;19930;-64
2021/08/20 06:24:59;;;;;;;;;;;17.10;99.90;;;;;;5116748;28;19925;-65
2021/08/20 06:27:48;;;;;;;;;;;17.10;99.90;;;;;;5114986;28;20012;-67
2021/08/20 06:30:46;;;;;;;;;;;17.20;99.90;;;;;;5113544;27;19934;-65
2021/08/20 06:33:38;;;;;;;;;;;17.30;99.90;;;;;;5138459;27;19928;-64
2021/08/20 06:36:26;;;;;;;;;;;17.20;99.90;;;;;;5136509;27;19923;-65
2021/08/20 06:39:14;;;;;;;;;;;17.20;99.90;;;;;;5143169;27;20442;-65
2021/08/20 06:42:03;;;;;;;;;;;17.30;99.90;;;;;;5142191;27;19923;-65
2021/08/20 06:44:51;;;;;;;;;;;17.40;99.90;;;;;;5145639;27;19930;-65
2021/08/20 06:47:40;;;;;;;;;;;17.60;99.90;;;;;;5131227;27;19966;-65
2021/08/20 06:50:29;;;;;;;;;;;17.80;99.90;;;;;;5147955;27;19938;-65
2021/08/20 06:53:18;;;;;;;;;;;18.00;99.90;;;;;;5142908;27;19923;-64
2021/08/20 06:56:06;;;;;;;;;;;18.00;99.90;;;;;;5136859;27;19931;-65
2021/08/20 06:58:57;;;;;;;;;;;17.90;99.90;;;;;;5154930;27;19941;-64
2021/08/20 07:01:45;;;;;;;;;;;17.70;99.90;;;;;;5131412;27;19928;-67
2021/08/20 07:04:35;;;;;;;;;;;17.60;99.90;;;;;;5135818;27;20330;-64
2021/08/20 07:07:25;;;;;;;;;;;17.70;99.90;;;;;;5135133;27;19928;-64
2021/08/20 07:10:15;;;;;;;;;;;18.00;99.90;;;;;;5135031;27;19992;-66
2021/08/20 07:13:04;;;;;;;;;;;18.10;99.90;;;;;;5135041;27;19945;-65
2021/08/20 07:15:52;;;;;;;;;;;17.80;99.90;;;;;;5129126;27;20310;-68
2021/08/20 07:18:41;;;;;;;;;;;17.80;99.90;;;;;;5135686;27;20012;-65
2021/08/20 07:21:29;;;;;;;;;;;17.80;99.90;;;;;;5135366;27;19927;-65
2021/08/20 07:24:19;;;;;;;;;;;17.80;99.90;;;;;;5135391;27;19924;-67
2021/08/20 07:27:08;;;;;;;;;;;17.90;99.90;;;;;;5135591;27;19925;-64
2021/08/20 07:29:56;;;;;;;;;;;18.20;99.90;;;;;;5135416;27;20426;-64
2021/08/20 07:32:46;;;;;;;;;;;18.60;99.90;;;;;;5134675;27;19930;-65
2021/08/20 07:35:34;;;;;;;;;;;19.00;99.90;;;;;;5134304;27;20375;-64
2021/08/20 07:38:23;;;;;;;;;;;19.00;99.90;;;;;;5135560;27;19924;-65
2021/08/20 07:41:12;;;;;;;;;;;19.00;99.90;;;;;;5133910;27;19930;-64
2021/08/20 07:44:01;;;;;;;;;;;19.20;99.90;;;;;;5120873;27;20406;-66
2021/08/20 07:46:53;;;;;;;;;;;19.20;99.90;;;;;;5128600;27;19923;-64
2021/08/20 07:49:41;;;;;;;;;;;19.60;99.90;;;;;;5119576;27;20438;-64
2021/08/20 07:52:30;;;;;;;;;;;19.50;99.90;;;;;;5134781;27;19930;-64
2021/08/20 07:55:19;;;;;;;;;;;19.70;99.90;;;;;;5134857;27;19924;-65
2021/08/20 07:58:08;;;;;;;;;;;19.70;99.90;;;;;;5135620;27;19931;-64
2021/08/20 08:00:57;;;;;;;;;;;19.90;99.90;;;;;;5128368;27;20037;-64
2021/08/20 08:03:46;;;;;;;;;;;19.90;99.90;;;;;;5120415;27;19938;-65
2021/08/20 08:06:35;;;;;;;;;;;19.90;99.90;;;;;;5134541;27;19971;-65
2021/08/20 08:09:24;;;;;;;;;;;20.10;99.90;;;;;;5134220;27;19923;-65
2021/08/20 08:12:13;;;;;;;;;;;20.40;99.90;;;;;;5133954;27;19963;-65
2021/08/20 08:15:03;;;;;;;;;;;20.90;99.90;;;;;;5133420;27;19923;-64
2021/08/20 08:17:51;;;;;;;;;;;21.80;99.90;;;;;;5110723;28;19969;-65
2021/08/20 08:20:40;;;;;;;;;;;22.60;99.90;;;;;;5114533;28;19931;-65
2021/08/20 08:23:28;;;;;;;;;;;25.30;99.90;;;;;;5113922;28;19924;-64
2021/08/20 08:26:17;;;;;;;;;;;27.60;98.40;;;;;;5115404;28;19923;-65
2021/08/20 08:29:06;;;;;;;;;;;30.30;93.70;;;;;;5115659;28;19923;-66
2021/08/20 08:31:56;;;;;;;;;;;28.90;89.70;;;;;;5111410;28;20011;-65
2021/08/20 08:34:45;;;;;;;;;;;31.10;87.40;;;;;;5126510;28;19924;-65
2021/08/20 08:37:33;;;;;;;;;;;29.40;90.60;;;;;;5112818;28;21015;-65
2021/08/20 08:40:22;;;;;;;;;;;27.80;93.30;;;;;;5112964;28;19992;-65
2021/08/20 08:43:10;;;;;;;;;;;28.10;93.20;;;;;;5112857;28;19977;-66
2021/08/20 08:46:02;;;;;;;;;;;30.20;90.30;;;;;;5106289;28;20008;-66
2021/08/20 08:48:52;;;;;;;;;;;30.50;89.90;;;;;;5112466;28;19931;-66
2021/08/20 08:51:41;;;;;;;;;;;32.10;83.70;;;;;;5132924;28;19924;-67
2021/08/20 08:54:29;;;;;;;;;;;31.80;82.30;;;;;;5128287;28;20325;-66
2021/08/20 08:57:18;;;;;;;;;;;33.70;75.80;;;;;;5130828;28;19947;-67
2021/08/20 09:00:07;;;;;;;;;;;35.10;68.20;;;;;;5124646;27;19931;-67
2021/08/20 09:02:55;;;;;;;;;;;31.70;74.10;;;;;;5149179;27;19923;-69
2021/08/20 09:05:47;;;;;;;;;;;28.30;84.70;;;;;;5134075;27;19930;-67
2021/08/20 09:08:36;;;;;;;;;;;26.50;92.20;;;;;;5133966;27;19927;-66
2021/08/20 09:11:26;;;;;;;;;;;26.30;92.40;;;;;;5132686;27;19924;-67
2021/08/20 09:14:16;;;;;;;;;;;30.80;81.10;;;;;;5117724;27;19923;-66
2021/08/20 09:17:05;;;;;;;;;;;28.70;83.90;;;;;;5125524;27;19923;-67
2021/08/20 09:20:13;;;;;;;;;;;28.10;87.50;;;;;;5133129;27;19923;-66
2021/08/20 09:23:16;;;;;;;;;;;27.10;89.30;;;;;;5131085;27;19923;-66
2021/08/20 09:26:04;;;;;;;;;;;28.20;85.40;;;;;;5131943;27;20375;-67
2021/08/20 09:28:53;;;;;;;;;;;27.20;88.40;;;;;;5131340;27;19948;-69
2021/08/20 09:31:52;;;;;;;;;;;25.90;91.70;;;;;;5125827;27;19924;-66
2021/08/20 09:34:47;;;;;;;;;;;24.40;94.40;;;;;;5131600;27;19923;-66
2021/08/20 09:37:40;;;;;;;;;;;24.30;95.50;;;;;;5132167;27;19946;-67
2021/08/20 09:40:29;;;;;;;;;;;29.90;86.70;;;;;;5131502;27;19957;-66
2021/08/20 09:43:23;;;;;;;;;;;32.10;74.10;;;;;;5136108;27;19984;-67
2021/08/20 09:46:13;;;;;;;;;;;31.30;77.40;;;;;;5131117;27;19993;-66
2021/08/20 09:49:03;;;;;;;;;;;28.10;81.30;;;;;;5124541;28;19923;-66
2021/08/20 09:51:52;;;;;;;;;;;26.10;90.90;;;;;;5132046;28;20014;-66
2021/08/20 09:54:42;;;;;;;;;;;24.50;93.50;;;;;;5132286;28;20291;-68
2021/08/20 09:57:32;;;;;;;;;;;23.80;95.40;;;;;;5133453;28;19946;-67
2021/08/20 10:00:21;;;;;;;;;;;23.50;96.80;;;;;;5128607;28;19924;-65
2021/08/20 10:03:11;;;;;;;;;;;22.80;99.20;;;;;;5132120;28;19974;-67
2021/08/20 10:06:01;;;;;;;;;;;22.20;99.90;;;;;;5132776;28;19923;-65
2021/08/20 10:08:53;;;;;;;;;;;21.90;99.90;;;;;;5133737;28;19923;-66
2021/08/20 10:11:42;;;;;;;;;;;21.70;99.90;;;;;;5131358;27;19946;-66
2021/08/20 10:14:32;;;;;;;;;;;21.70;99.90;;;;;;5117406;28;19929;-65
2021/08/20 10:17:23;;;;;;;;;;;21.80;99.90;;;;;;5125288;28;19923;-65
2021/08/20 10:20:12;;;;;;;;;;;21.80;99.90;;;;;;5132419;28;19930;-65
2021/08/20 10:23:00;;;;;;;;;;;21.70;99.90;;;;;;5124775;28;20018;-65
2021/08/20 10:25:49;;;;;;;;;;;22.00;99.90;;;;;;5133605;28;19924;-65
2021/08/20 10:28:39;;;;;;;;;;;22.30;99.90;;;;;;5131672;28;19931;-66
2021/08/20 10:31:29;;;;;;;;;;;22.80;99.90;;;;;;5124543;28;19927;-65
2021/08/20 10:34:33;;;;;;;;;;;25.00;98.20;;;;;;5131625;28;20367;-67
2021/08/20 10:37:26;;;;;;;;;;;28.70;91.70;;;;;;5132441;28;19923;-66
2021/08/20 10:40:22;;;;;;;;;;;30.30;85.20;;;;;;5133625;27;19923;-65
2021/08/20 10:43:37;;;;;;;;;;;29.60;85.50;;;;;;5135404;27;19924;-66
2021/08/20 10:46:44;;;;;;;;;;;28.90;85.50;;;;;;5128840;27;19924;-65
2021/08/20 10:49:43;;;;;;;;;;;28.80;85.20;;;;;;5134147;27;19966;-67
2021/08/20 10:52:32;;;;;;;;;;;27.10;90.90;;;;;;5134454;27;19923;-65
2021/08/20 10:55:25;;;;;;;;;;;27.00;92.00;;;;;;5135396;27;20373;-64
2021/08/20 10:58:13;;;;;;;;;;;26.50;91.60;;;;;;5135444;27;19927;-64
2021/08/20 11:01:02;;;;;;;;;;;26.10;92.70;;;;;;5119425;27;20386;-64
2021/08/20 11:03:53;;;;;;;;;;;25.40;93.30;;;;;;5134956;27;20454;-64
2021/08/20 11:06:52;;;;;;;;;;;26.70;90.60;;;;;;5135576;27;20014;-65
2021/08/20 11:09:43;;;;;;;;;;;26.10;92.00;;;;;;5134573;27;19923;-64
2021/08/20 11:12:37;;;;;;;;;;;24.40;92.90;;;;;;5119563;27;19967;-64
2021/08/20 11:15:42;;;;;;;;;;;23.70;94.60;;;;;;5130537;27;20330;-65
2021/08/20 11:18:40;;;;;;;;;;;23.40;95.70;;;;;;5134593;27;20325;-65
2021/08/20 11:21:44;;;;;;;;;;;23.70;94.70;;;;;;5136337;27;19923;-65
2021/08/20 11:24:34;;;;;;;;;;;23.80;95.30;;;;;;5135813;27;20398;-67
2021/08/20 11:27:24;;;;;;;;;;;23.80;93.80;;;;;;5136581;27;19948;-65
2021/08/20 11:30:17;;;;;;;;;;;23.80;93.00;;;;;;5128559;27;19927;-65
2021/08/20 11:33:15;;;;;;;;;;;23.60;93.20;;;;;;5136185;27;19924;-65
2021/08/20 11:36:12;;;;;;;;;;;23.20;92.00;;;;;;5136190;27;19923;-65
2021/08/20 11:39:02;;;;;;;;;;;23.20;92.50;;;;;;5135097;27;19923;-65
2021/08/20 11:41:56;;;;;;;;;;;23.20;92.30;;;;;;5136115;27;19931;-65
2021/08/20 11:44:45;;;;;;;;;;;23.40;92.70;;;;;;5134892;27;19923;-65
2021/08/20 11:47:33;;;;;;;;;;;23.80;93.30;;;;;;5134761;27;20007;-66
2021/08/20 11:50:21;;;;;;;;;;;24.50;93.70;;;;;;5134040;27;19931;-65
2021/08/20 11:53:10;;;;;;;;;;;24.60;94.90;;;;;;5134744;27;19924;-65
2021/08/20 11:56:12;;;;;;;;;;;24.50;95.70;;;;;;5134145;27;19924;-66
2021/08/20 11:59:09;;;;;;;;;;;24.20;95.50;;;;;;5134453;27;19923;-65
2021/08/20 12:01:58;;;;;;;;;;;23.60;96.60;;;;;;5128316;27;19935;-66
2021/08/20 12:08:13;;;;;;;;;;;23.60;96.70;;;;;;5135364;27;19923;-65
2021/08/20 12:11:02;;;;;;;;;;;23.80;96.80;;;;;;5135140;27;19923;-66
2021/08/20 12:13:52;;;;;;;;;;;23.90;96.80;;;;;;5134490;27;19923;-68
2021/08/20 12:16:42;;;;;;;;;;;23.80;96.80;;;;;;5128126;27;19923;-65
2021/08/20 12:19:42;;;;;;;;;;;23.70;96.70;;;;;;5134570;27;19923;-65
2021/08/20 12:22:34;;;;;;;;;;;23.90;96.50;;;;;;5133875;27;19930;-65
2021/08/20 12:25:24;;;;;;;;;;;24.20;96.70;;;;;;5133733;27;19923;-67
2021/08/20 12:28:15;;;;;;;;;;;24.10;97.00;;;;;;5141423;27;20053;-66
2021/08/20 12:31:06;;;;;;;;;;;23.90;96.90;;;;;;5129525;27;20442;-66
2021/08/20 12:34:03;;;;;;;;;;;24.10;96.70;;;;;;5134684;27;20290;-65
2021/08/20 12:36:53;;;;;;;;;;;24.00;96.70;;;;;;5133665;27;19930;-65
2021/08/20 12:39:43;;;;;;;;;;;24.10;96.80;;;;;;5133604;27;20294;-68
2021/08/20 12:42:31;;;;;;;;;;;24.10;96.60;;;;;;5133699;27;19930;-65
2021/08/20 12:45:20;;;;;;;;;;;23.90;97.40;;;;;;5129221;27;20394;-66
2021/08/20 12:48:10;;;;;;;;;;;23.80;97.50;;;;;;5134304;27;19927;-66
2021/08/20 12:51:03;;;;;;;;;;;23.70;97.30;;;;;;5134009;27;19927;-65
2021/08/20 12:54:00;;;;;;;;;;;23.50;97.40;;;;;;5134361;27;20290;-66
2021/08/20 12:56:48;;;;;;;;;;;23.20;98.10;;;;;;5133249;27;19934;-66
2021/08/20 12:59:37;;;;;;;;;;;23.00;97.70;;;;;;5133972;27;19924;-68
2021/08/20 13:02:25;;;;;;;;;;;22.90;98.10;;;;;;5087725;28;19924;-65
2021/08/20 13:05:15;;;;;;;;;;;22.80;98.00;;;;;;5094797;28;19952;-65
2021/08/20 13:08:06;;;;;;;;;;;22.80;98.10;;;;;;5095604;28;20015;-65
2021/08/20 13:10:55;;;;;;;;;;;23.00;98.00;;;;;;5099709;28;19924;-65
2021/08/20 13:13:44;;;;;;;;;;;23.30;97.40;;;;;;5099436;28;19982;-68
2021/08/20 13:16:32;;;;;;;;;;;23.40;97.00;;;;;;5100146;28;19931;-65
2021/08/20 13:19:21;;;;;;;;;;;23.60;96.90;;;;;;5113711;28;19924;-66
2021/08/20 13:22:09;;;;;;;;;;;23.80;96.60;;;;;;5106504;28;20020;-65
2021/08/20 13:24:59;;;;;;;;;;;24.00;96.10;;;;;;5113317;28;19977;-63
2021/08/20 13:27:47;;;;;;;;;;;24.30;95.90;;;;;;5111703;28;20375;-65
2021/08/20 13:30:37;;;;;;;;;;;24.30;95.10;;;;;;5104583;28;19984;-64
2021/08/20 13:33:27;;;;;;;;;;;24.30;95.40;;;;;;5111812;28;20491;-64
2021/08/20 13:36:15;;;;;;;;;;;24.20;95.00;;;;;;5111613;28;19931;-66
2021/08/20 13:39:03;;;;;;;;;;;23.90;95.20;;;;;;5111055;28;19930;-65
2021/08/20 13:41:53;;;;;;;;;;;23.50;95.80;;;;;;5111673;28;19930;-64
2021/08/20 13:44:41;;;;;;;;;;;23.30;95.80;;;;;;5112795;28;19923;-65
2021/08/20 13:47:30;;;;;;;;;;;23.50;96.30;;;;;;5111036;28;19928;-64
2021/08/20 13:50:18;;;;;;;;;;;23.60;96.10;;;;;;5112812;28;19931;-64
2021/08/20 13:53:07;;;;;;;;;;;23.60;95.70;;;;;;5111541;28;20283;-65
2021/08/20 13:55:55;;;;;;;;;;;23.70;96.00;;;;;;5110899;28;19928;-65
2021/08/20 13:58:45;;;;;;;;;;;23.70;95.80;;;;;;5111342;28;19924;-65
2021/08/20 14:01:33;;;;;;;;;;;23.60;96.10;;;;;;5106665;28;19932;-67
2021/08/20 14:04:22;;;;;;;;;;;23.90;96.10;;;;;;5112456;28;19971;-64
2021/08/20 14:07:11;;;;;;;;;;;24.30;95.90;;;;;;5112085;28;20201;-65
2021/08/20 14:10:00;;;;;;;;;;;24.50;94.90;;;;;;5114907;28;19924;-65
2021/08/20 14:12:48;;;;;;;;;;;24.70;94.60;;;;;;5129242;28;19991;-65
2021/08/20 14:15:38;;;;;;;;;;;24.50;94.50;;;;;;5134846;27;19924;-65
2021/08/20 14:18:27;;;;;;;;;;;24.30;94.60;;;;;;5137512;27;19923;-65
2021/08/20 14:21:15;;;;;;;;;;;24.10;94.80;;;;;;5124591;27;19923;-64
2021/08/20 14:24:04;;;;;;;;;;;24.10;94.40;;;;;;5121334;27;19923;-64
2021/08/20 14:26:52;;;;;;;;;;;24.20;94.70;;;;;;5135234;27;19923;-67
2021/08/20 14:29:43;;;;;;;;;;;24.50;94.10;;;;;;5135902;27;19980;-64
2021/08/20 14:32:34;;;;;;;;;;;24.40;93.20;;;;;;5135431;27;20372;-64
2021/08/20 14:35:24;;;;;;;;;;;24.40;93.20;;;;;;5134623;27;19923;-64
2021/08/20 14:38:12;;;;;;;;;;;24.50;93.70;;;;;;5134894;27;19930;-65
2021/08/20 14:41:02;;;;;;;;;;;24.50;94.00;;;;;;5136050;27;19959;-64
2021/08/20 14:43:50;;;;;;;;;;;24.50;94.10;;;;;;5134847;27;19927;-65
2021/08/20 14:46:38;;;;;;;;;;;25.30;93.20;;;;;;5128521;27;19923;-65
2021/08/20 14:49:28;;;;;;;;;;;25.20;92.20;;;;;;5135315;27;19971;-65
2021/08/20 14:52:16;;;;;;;;;;;24.90;92.50;;;;;;5135044;27;19931;-65
2021/08/20 14:55:05;;;;;;;;;;;24.80;92.90;;;;;;5136329;27;19927;-65
2021/08/20 14:57:54;;;;;;;;;;;24.60;93.30;;;;;;5133790;27;20014;-66
2021/08/20 15:00:43;;;;;;;;;;;25.00;93.10;;;;;;5129225;27;19930;-65
2021/08/20 15:03:33;;;;;;;;;;;25.10;93.10;;;;;;5135670;27;20468;-66
2021/08/20 15:06:23;;;;;;;;;;;25.00;93.10;;;;;;5135189;27;20401;-66
2021/08/20 15:09:15;;;;;;;;;;;24.60;93.10;;;;;;5134768;27;20405;-64
2021/08/20 15:12:04;;;;;;;;;;;23.90;93.80;;;;;;5142769;27;19930;-65
2021/08/20 15:14:52;;;;;;;;;;;24.00;94.30;;;;;;5141666;27;19923;-64
2021/08/20 15:17:41;;;;;;;;;;;24.20;94.00;;;;;;5135045;27;19996;-65
2021/08/20 15:20:29;;;;;;;;;;;24.10;94.30;;;;;;5133966;27;19924;-66
2021/08/20 15:23:23;;;;;;;;;;;23.70;95.90;;;;;;5134853;27;20390;-65
2021/08/20 15:26:12;;;;;;;;;;;23.70;96.20;;;;;;5131855;27;19923;-66
2021/08/20 15:29:01;;;;;;;;;;;24.30;95.70;;;;;;5126874;27;19931;-66
2021/08/20 15:31:50;;;;;;;;;;;26.40;92.80;;;;;;5126914;27;20443;-66
2021/08/20 15:34:39;;;;;;;;;;;28.70;90.30;;;;;;5132947;27;20416;-67
2021/08/20 15:37:28;;;;;;;;;;;30.80;82.20;;;;;;5133024;27;20438;-69
2021/08/20 15:40:17;;;;;;;;;;;32.40;73.00;;;;;;5132412;27;19923;-67
2021/08/20 15:43:05;;;;;;;;;;;31.90;71.40;;;;;;5133967;27;20295;-66
2021/08/20 15:45:54;;;;;;;;;;;30.70;71.00;;;;;;5119421;27;20387;-67
2021/08/20 15:48:42;;;;;;;;;;;28.70;74.80;;;;;;5113956;28;19930;-66
2021/08/20 15:51:31;;;;;;;;;;;27.10;79.30;;;;;;5112847;28;20315;-67
2021/08/20 15:54:20;;;;;;;;;;;26.00;85.00;;;;;;5112110;28;19930;-67
2021/08/20 15:57:10;;;;;;;;;;;25.70;89.00;;;;;;5113316;28;20061;-67
2021/08/20 15:59:58;;;;;;;;;;;25.70;90.20;;;;;;5112888;28;19934;-67
2021/08/20 16:02:46;;;;;;;;;;;25.90;90.20;;;;;;5112580;28;19930;-66
2021/08/20 16:05:36;;;;;;;;;;;25.80;89.60;;;;;;5113558;28;19973;-66
2021/08/20 16:08:25;;;;;;;;;;;25.60;90.00;;;;;;5112279;28;20372;-66
2021/08/20 16:11:13;;;;;;;;;;;25.60;90.10;;;;;;5112614;28;19923;-67
2021/08/20 16:14:03;;;;;;;;;;;25.40;90.60;;;;;;5112428;28;19928;-66
2021/08/20 16:16:51;;;;;;;;;;;25.30;90.50;;;;;;5106327;28;19928;-65
2021/08/20 16:19:40;;;;;;;;;;;25.40;90.30;;;;;;5112391;28;19924;-66
2021/08/20 16:22:28;;;;;;;;;;;25.40;90.30;;;;;;5112012;28;19924;-66
2021/08/20 16:25:17;;;;;;;;;;;25.40;89.90;;;;;;5112306;28;19931;-66
2021/08/20 16:28:06;;;;;;;;;;;25.40;89.90;;;;;;5112839;28;20294;-65
2021/08/20 16:30:59;;;;;;;;;;;25.30;90.20;;;;;;5105915;28;19931;-66
2021/08/20 16:33:48;;;;;;;;;;;25.00;89.50;;;;;;5112782;28;19953;-65
2021/08/20 16:36:37;;;;;;;;;;;24.90;90.20;;;;;;5112557;28;19931;-68
2021/08/20 16:39:25;;;;;;;;;;;24.80;90.10;;;;;;5111473;28;19931;-65
2021/08/20 16:42:14;;;;;;;;;;;24.80;90.90;;;;;;5112504;28;19977;-65
2021/08/20 16:45:02;;;;;;;;;;;24.90;89.20;;;;;;5110940;28;19996;-65
2021/08/20 16:47:52;;;;;;;;;;;24.80;90.00;;;;;;5113263;28;19923;-65